Time;durP1;ratioP1;P1;durP2;ratioP2;P2;SDS_P1;SDS_P2;PMS_P1;PMS_P2;Temp;Humidity;BMP_temperature;BMP_pressure;BME280_temperature;BME280_humidity;BME280_pressure;Samples;Min_cycle;Max_cycle;Signal;HPM_P1;HPM_P2
2022/07/06 00:02:21;;;;;;;9.20;1.70;;;14.30;99.90;;;;;;4960689;28;208917;-79
2022/07/06 00:04:48;;;;;;;13.80;1.98;;;14.20;99.90;;;;;;4959462;28;231463;-78
2022/07/06 00:07:14;;;;;;;8.35;1.60;;;14.20;99.90;;;;;;4931862;28;208241;-79
2022/07/06 00:09:43;;;;;;;6.82;1.30;;;14.30;99.90;;;;;;4990116;28;20056;-76
2022/07/06 00:12:09;;;;;;;8.32;1.48;;;14.20;99.90;;;;;;4940839;28;205997;-77
2022/07/06 00:14:35;;;;;;;7.57;1.70;;;14.20;99.90;;;;;;4984093;28;170306;-78
2022/07/06 00:17:02;;;;;;;8.90;1.55;;;14.20;99.90;;;;;;4930368;28;206412;-77
2022/07/06 00:19:28;;;;;;;6.25;1.58;;;14.20;99.90;;;;;;4997469;28;259851;-75
2022/07/06 00:21:54;;;;;;;9.70;1.70;;;14.20;99.90;;;;;;4958262;28;187581;-76
2022/07/06 00:24:20;;;;;;;9.18;1.60;;;14.20;99.90;;;;;;4985107;28;256046;-77
2022/07/06 00:26:46;;;;;;;11.13;1.58;;;14.20;99.90;;;;;;4928006;28;206585;-77
2022/07/06 00:29:13;;;;;;;6.82;1.48;;;14.10;99.90;;;;;;4973709;28;273656;-76
2022/07/06 00:31:39;;;;;;;11.82;1.70;;;14.10;99.90;;;;;;4943103;28;209396;-77
2022/07/06 00:34:05;;;;;;;7.55;1.50;;;14.20;99.90;;;;;;4992175;28;20061;-77
2022/07/06 00:36:31;;;;;;;10.60;1.95;;;14.10;99.90;;;;;;4931021;28;208940;-77
2022/07/06 00:38:57;;;;;;;8.65;1.85;;;14.10;99.90;;;;;;4979913;28;20539;-78
2022/07/06 00:41:23;;;;;;;9.25;1.40;;;14.10;99.90;;;;;;4944536;28;202690;-78
2022/07/06 00:43:55;;;;;;;8.55;1.63;;;14.10;99.90;;;;;;4996985;28;20056;-78
2022/07/06 00:46:42;;;;;;;9.82;1.60;;;14.10;99.90;;;;;;4928984;28;156818;-77
2022/07/06 00:50:13;;;;;;;9.63;1.77;;;14.10;99.90;;;;;;4984536;28;267603;-77
2022/07/06 00:51:54;;;;;;;7.65;1.42;;;14.10;99.90;;;;;;4987149;28;204209;-77
2022/07/06 00:54:20;;;;;;;11.27;1.70;;;14.10;99.90;;;;;;4980320;28;261191;-76
2022/07/06 00:56:47;;;;;;;7.05;1.40;;;14.00;99.90;;;;;;4973465;28;206784;-77
2022/07/06 00:59:13;;;;;;;11.68;1.70;;;14.00;99.90;;;;;;4968738;28;271370;-77
2022/07/06 01:01:39;;;;;;;7.93;1.83;;;14.00;99.90;;;;;;4944837;28;205461;-77
2022/07/06 01:04:05;;;;;;;11.27;1.92;;;14.00;99.90;;;;;;4992657;28;20278;-77
2022/07/06 01:06:31;;;;;;;7.45;1.50;;;14.00;99.90;;;;;;4916537;28;203998;-77
2022/07/06 01:08:59;;;;;;;8.15;1.40;;;14.00;99.90;;;;;;4990927;28;20046;-76
2022/07/06 01:11:25;;;;;;;10.40;1.80;;;14.00;99.90;;;;;;4949049;28;132046;-77
2022/07/06 01:13:52;;;;;;;8.52;1.73;;;14.10;99.90;;;;;;5000773;28;20050;-77
2022/07/06 01:16:18;;;;;;;7.53;1.55;;;14.10;99.90;;;;;;4928043;28;250487;-78
2022/07/06 01:18:45;;;;;;;7.88;1.50;;;14.10;99.90;;;;;;4994653;28;20550;-77
2022/07/06 01:21:13;;;;;;;9.32;1.70;;;14.10;99.90;;;;;;4945567;28;250965;-78
2022/07/06 01:23:45;;;;;;;8.35;1.73;;;14.10;99.90;;;;;;4984592;28;20053;-77
2022/07/06 01:26:13;;;;;;;10.77;1.70;;;14.10;99.90;;;;;;4938004;28;204995;-77
2022/07/06 01:28:40;;;;;;;12.50;1.70;;;14.10;99.90;;;;;;4989739;28;20053;-77
2022/07/06 01:31:15;;;;;;;8.20;1.73;;;14.10;99.90;;;;;;4920267;28;208922;-77
2022/07/06 01:33:41;;;;;;;11.90;2.00;;;14.10;99.90;;;;;;5012690;28;20050;-76
2022/07/06 01:36:07;;;;;;;7.80;1.60;;;14.10;99.90;;;;;;4932252;28;234656;-77
2022/07/06 01:38:47;;;;;;;7.32;1.63;;;14.10;99.90;;;;;;4979594;28;20064;-77
2022/07/06 01:41:13;;;;;;;10.15;1.80;;;14.10;99.90;;;;;;4942570;28;239553;-76
2022/07/06 01:43:39;;;;;;;9.45;1.45;;;14.10;99.90;;;;;;4985005;28;20052;-77
2022/07/06 01:46:05;;;;;;;7.47;1.40;;;14.10;99.90;;;;;;4914946;28;205188;-77
2022/07/06 01:48:31;;;;;;;8.98;1.85;;;14.10;99.90;;;;;;4981527;28;20060;-77
2022/07/06 01:50:58;;;;;;;9.10;1.70;;;14.10;99.90;;;;;;4933788;28;206301;-77
2022/07/06 01:53:24;;;;;;;7.15;1.50;;;14.00;99.90;;;;;;4986098;28;20061;-77
2022/07/06 01:55:50;;;;;;;8.18;1.60;;;14.00;99.90;;;;;;4913557;28;207146;-77
2022/07/06 01:58:16;;;;;;;8.95;1.73;;;14.00;99.90;;;;;;4979929;28;20042;-76
2022/07/06 02:00:42;;;;;;;7.72;1.70;;;14.10;99.90;;;;;;4940714;28;249837;-77
2022/07/06 02:03:08;;;;;;;8.40;1.73;;;14.10;99.90;;;;;;4997259;28;20137;-77
2022/07/06 02:05:34;;;;;;;11.85;1.73;;;14.10;99.90;;;;;;4926836;28;205787;-78
2022/07/06 02:08:00;;;;;;;9.27;1.60;;;14.10;99.90;;;;;;4996543;28;20050;-78
2022/07/06 02:10:27;;;;;;;10.45;1.83;;;14.00;99.90;;;;;;4946384;28;205927;-77
2022/07/06 02:12:53;;;;;;;9.88;1.83;;;14.10;99.90;;;;;;4981636;28;20058;-78
2022/07/06 02:15:19;;;;;;;8.32;1.67;;;14.10;99.90;;;;;;4958883;28;150326;-78
2022/07/06 02:17:45;;;;;;;8.77;1.75;;;14.00;99.90;;;;;;4957425;28;206968;-77
2022/07/06 02:20:11;;;;;;;12.25;1.90;;;14.00;99.90;;;;;;4992482;28;77063;-77
2022/07/06 02:22:37;;;;;;;7.65;1.67;;;14.00;99.90;;;;;;4942205;28;201761;-76
2022/07/06 02:25:04;;;;;;;9.85;1.80;;;14.00;99.90;;;;;;4973619;28;209685;-77
2022/07/06 02:27:31;;;;;;;9.85;2.10;;;14.00;99.90;;;;;;4921665;28;203210;-77
2022/07/06 02:29:57;;;;;;;9.15;1.70;;;14.00;99.90;;;;;;4987126;28;175092;-77
2022/07/06 02:32:23;;;;;;;8.73;1.77;;;13.90;99.90;;;;;;4934410;28;208422;-78
2022/07/06 02:34:49;;;;;;;9.32;1.70;;;14.00;99.90;;;;;;4986622;28;45643;-78
2022/07/06 02:37:15;;;;;;;7.85;1.80;;;14.00;99.90;;;;;;4907469;28;208023;-78
2022/07/06 02:39:41;;;;;;;9.23;2.13;;;14.00;99.90;;;;;;4994166;28;20135;-78
2022/07/06 02:42:08;;;;;;;9.88;1.90;;;14.00;99.90;;;;;;4929898;28;208094;-77
2022/07/06 02:44:34;;;;;;;10.93;1.70;;;14.00;99.90;;;;;;4993792;28;20502;-78
2022/07/06 02:47:00;;;;;;;9.40;1.65;;;14.00;99.90;;;;;;4948144;28;205845;-77
2022/07/06 02:49:26;;;;;;;9.30;1.85;;;14.00;99.90;;;;;;4976578;28;254654;-77
2022/07/06 02:51:52;;;;;;;8.65;1.73;;;14.00;99.90;;;;;;4940660;28;198117;-77
2022/07/06 02:54:18;;;;;;;9.90;1.80;;;14.00;99.90;;;;;;4974451;28;262267;-77
2022/07/06 02:56:47;;;;;;;8.98;1.77;;;14.00;99.90;;;;;;4955250;28;205197;-78
2022/07/06 02:59:14;;;;;;;9.30;1.83;;;14.00;99.90;;;;;;4987661;28;254590;-78
2022/07/06 03:01:40;;;;;;;12.05;1.38;;;14.00;99.90;;;;;;4953126;28;205869;-76
2022/07/06 03:04:06;;;;;;;9.00;1.98;;;14.00;99.90;;;;;;5016681;28;20069;-77
2022/07/06 03:06:32;;;;;;;12.25;2.00;;;14.00;99.90;;;;;;4917788;28;213893;-77
2022/07/06 03:08:59;;;;;;;7.55;1.73;;;14.00;99.90;;;;;;4994023;28;20053;-77
2022/07/06 03:11:25;;;;;;;11.20;1.60;;;14.00;99.90;;;;;;4947430;28;207632;-78
2022/07/06 03:13:51;;;;;;;11.60;1.80;;;14.00;99.90;;;;;;4991561;28;20054;-77
2022/07/06 03:16:17;;;;;;;7.63;1.80;;;14.00;99.90;;;;;;4923034;28;193297;-77
2022/07/06 03:18:43;;;;;;;10.18;2.15;;;14.10;99.90;;;;;;4983007;28;20054;-77
2022/07/06 03:21:09;;;;;;;10.95;1.75;;;14.00;99.90;;;;;;4942205;28;205302;-77
2022/07/06 03:23:35;;;;;;;7.90;1.60;;;14.00;99.90;;;;;;4995623;28;20065;-77
2022/07/06 03:26:02;;;;;;;8.60;1.80;;;14.10;99.90;;;;;;4941573;28;206945;-78
2022/07/06 03:28:28;;;;;;;9.00;1.70;;;14.10;99.90;;;;;;4997107;28;20053;-78
2022/07/06 03:30:54;;;;;;;8.63;1.42;;;14.10;99.90;;;;;;4944112;28;205454;-78
2022/07/06 03:33:20;;;;;;;10.73;1.40;;;14.10;99.90;;;;;;4992391;28;20065;-78
2022/07/06 03:35:46;;;;;;;8.88;1.50;;;14.10;99.90;;;;;;4914646;28;209081;-78
2022/07/06 03:38:13;;;;;;;10.18;1.70;;;14.10;99.90;;;;;;4973750;28;20066;-78
2022/07/06 03:40:39;;;;;;;9.02;1.40;;;14.10;99.90;;;;;;4952078;28;136675;-78
2022/07/06 03:43:05;;;;;;;7.95;1.40;;;14.10;99.90;;;;;;4998076;28;20045;-77
2022/07/06 03:45:31;;;;;;;7.63;1.27;;;14.00;99.90;;;;;;4927874;28;197676;-78
2022/07/06 03:47:57;;;;;;;7.70;1.38;;;14.10;99.90;;;;;;4976456;28;20053;-77
2022/07/06 03:50:23;;;;;;;6.57;1.27;;;14.00;99.90;;;;;;4936906;28;241286;-76
2022/07/06 03:52:49;;;;;;;8.60;1.35;;;14.00;99.90;;;;;;4984468;28;20058;-77
2022/07/06 03:55:15;;;;;;;10.65;1.50;;;14.00;99.90;;;;;;4979448;28;233073;-77
2022/07/06 03:57:41;;;;;;;10.15;1.35;;;14.00;99.90;;;;;;4974734;28;161903;-77
2022/07/06 04:00:09;;;;;;;10.23;1.60;;;14.00;99.90;;;;;;4971631;28;280764;-77
2022/07/06 04:02:35;;;;;;;9.73;1.48;;;14.00;99.90;;;;;;4945523;28;217607;-78
2022/07/06 04:05:01;;;;;;;8.77;1.60;;;14.00;99.90;;;;;;4976146;28;178788;-79
2022/07/06 04:07:28;;;;;;;10.23;1.67;;;14.00;99.90;;;;;;4944421;28;199345;-75
2022/07/06 04:09:54;;;;;;;7.47;1.50;;;14.00;99.90;;;;;;4981780;28;141913;-76
2022/07/06 04:12:20;;;;;;;10.23;1.55;;;14.00;99.90;;;;;;4938222;28;220412;-77
2022/07/06 04:14:46;;;;;;;6.95;1.40;;;14.00;99.90;;;;;;4966536;28;163224;-77
2022/07/06 04:19:57;;;;;;;9.43;1.70;;;14.00;99.90;;;;;;5015398;28;30403;-76
2022/07/06 04:22:23;;;;;;;10.30;2.20;;;14.00;99.90;;;;;;4966144;28;211570;-77
2022/07/06 04:24:49;;;;;;;7.95;1.80;;;14.00;99.90;;;;;;5016789;28;41603;-76
2022/07/06 04:27:16;;;;;;;10.48;1.45;;;14.00;99.90;;;;;;4953739;28;202246;-77
2022/07/06 04:29:43;;;;;;;9.95;1.58;;;14.00;99.90;;;;;;4997602;28;204920;-78
2022/07/06 04:32:09;;;;;;;9.57;1.42;;;14.10;99.90;;;;;;4951406;28;180858;-76
2022/07/06 04:34:35;;;;;;;10.35;1.33;;;14.10;99.90;;;;;;4977727;28;236608;-78
2022/07/06 04:37:02;;;;;;;8.40;1.50;;;14.10;99.90;;;;;;4947546;28;205267;-78
2022/07/06 04:39:30;;;;;;;13.55;1.65;;;14.20;99.90;;;;;;4985617;28;258531;-76
2022/07/06 04:41:56;;;;;;;11.85;1.50;;;14.20;99.90;;;;;;4953216;28;209084;-76
2022/07/06 04:44:22;;;;;;;8.25;1.40;;;14.20;99.90;;;;;;4989683;28;256884;-78
2022/07/06 04:46:50;;;;;;;9.02;1.50;;;14.20;99.90;;;;;;4934659;28;207521;-78
2022/07/06 04:49:16;;;;;;;12.85;2.13;;;14.20;99.90;;;;;;4984597;28;267310;-77
2022/07/06 04:51:42;;;;;;;6.20;1.20;;;14.10;99.90;;;;;;4952960;28;205871;-78
2022/07/06 04:54:08;;;;;;;7.70;1.40;;;14.10;99.90;;;;;;4991645;28;254924;-79
2022/07/06 04:56:34;;;;;;;8.48;1.30;;;14.10;99.90;;;;;;4977582;28;166054;-78
2022/07/06 04:59:00;;;;;;;8.63;1.30;;;14.10;99.90;;;;;;5006565;28;20057;-78
2022/07/06 05:01:27;;;;;;;10.45;1.52;;;14.10;99.90;;;;;;4937979;28;211662;-78
2022/07/06 05:03:53;;;;;;;9.45;1.52;;;14.10;99.90;;;;;;5004296;28;20416;-79
2022/07/06 05:06:19;;;;;;;9.75;1.33;;;14.10;99.90;;;;;;4918385;28;248937;-78
2022/07/06 05:08:46;;;;;;;7.43;1.30;;;14.10;99.90;;;;;;5001214;28;20061;-77
2022/07/06 05:11:12;;;;;;;14.20;1.70;;;14.10;99.90;;;;;;4931621;28;214046;-77
2022/07/06 05:13:38;;;;;;;9.30;1.67;;;14.20;99.90;;;;;;5006288;28;20102;-78
2022/07/06 05:16:04;;;;;;;9.75;1.30;;;14.20;99.90;;;;;;4934856;28;209741;-77
2022/07/06 05:18:31;;;;;;;4.88;1.00;;;14.30;99.90;;;;;;4984828;28;20402;-78
2022/07/06 05:20:57;;;;;;;9.85;1.20;;;14.40;99.90;;;;;;4948438;28;176063;-78
2022/07/06 05:23:23;;;;;;;7.60;1.23;;;14.40;99.90;;;;;;4987578;28;20536;-76
2022/07/06 05:25:49;;;;;;;7.60;1.20;;;14.50;99.90;;;;;;4951854;28;209102;-77
2022/07/06 05:28:15;;;;;;;7.13;1.30;;;14.50;99.90;;;;;;5006744;28;20060;-77
2022/07/06 05:30:41;;;;;;;9.10;1.50;;;14.50;99.90;;;;;;4925677;28;246840;-77
2022/07/06 05:33:07;;;;;;;8.32;1.20;;;14.60;99.90;;;;;;4996124;28;20387;-78
2022/07/06 05:35:33;;;;;;;10.55;1.30;;;14.60;99.90;;;;;;4947302;28;235602;-77
2022/07/06 05:37:59;;;;;;;8.20;1.10;;;14.60;99.90;;;;;;4989316;28;20073;-77
2022/07/06 05:40:26;;;;;;;12.98;1.50;;;14.60;99.90;;;;;;4928139;28;204764;-77
2022/07/06 05:42:52;;;;;;;7.95;1.58;;;14.70;99.90;;;;;;4999964;28;20515;-77
2022/07/06 05:45:18;;;;;;;8.05;1.20;;;14.80;99.90;;;;;;4972738;28;184839;-77
2022/07/06 05:50:29;;;;;;;9.80;1.30;;;14.90;99.90;;;;;;4951347;28;254766;-76
2022/07/06 05:53:00;;;;;;;8.75;1.08;;;14.70;99.90;;;;;;4987666;28;20513;-77
2022/07/06 05:55:27;;;;;;;;;;;14.70;99.90;;;;;;4935608;28;210842;-77
2022/07/06 05:57:53;;;;;;;10.80;1.20;;;14.60;99.90;;;;;;4978648;28;19925;-77
2022/07/06 06:00:21;;;;;;;8.65;1.27;;;14.60;99.90;;;;;;4948714;28;213562;-77
2022/07/06 06:02:47;;;;;;;8.05;1.35;;;14.60;99.90;;;;;;4976854;28;20054;-78
2022/07/06 06:05:14;;;;;;;9.05;1.40;;;14.60;99.90;;;;;;4967872;28;191256;-79
2022/07/06 06:07:41;;;;;;;9.43;1.10;;;14.70;99.90;;;;;;4944182;28;145420;-78
2022/07/06 06:10:12;;;;;;;13.32;1.23;;;14.80;99.90;;;;;;4997727;28;24571;-77
2022/07/06 06:12:39;;;;;;;8.30;1.10;;;14.70;99.90;;;;;;4941317;28;242867;-79
2022/07/06 06:15:07;;;;;;;8.13;1.02;;;14.80;99.90;;;;;;4995048;28;20144;-78
2022/07/06 06:17:34;;;;;;;9.20;1.00;;;14.70;99.90;;;;;;4962827;28;209483;-78
2022/07/06 06:20:01;;;;;;;7.60;1.08;;;14.80;99.90;;;;;;4995900;28;156894;-79
2022/07/06 06:22:27;;;;;;;9.43;1.30;;;14.80;99.90;;;;;;4930413;28;207663;-78
2022/07/06 06:24:53;;;;;;;10.23;1.02;;;14.90;99.90;;;;;;4998193;28;127393;-78
2022/07/06 06:27:19;;;;;;;7.28;1.15;;;15.10;99.90;;;;;;4953226;28;207851;-77
2022/07/06 06:29:46;;;;;;;9.18;1.30;;;15.20;99.90;;;;;;4980485;28;170218;-78
2022/07/06 06:32:13;;;;;;;8.68;1.33;;;15.30;99.90;;;;;;4962215;28;206436;-78
2022/07/06 06:34:40;;;;;;;10.25;1.10;;;15.50;99.90;;;;;;4976606;28;211877;-77
2022/07/06 06:37:06;;;;;;;7.32;1.05;;;15.60;99.90;;;;;;4954678;28;203616;-77
2022/07/06 06:39:32;;;;;;;10.32;1.20;;;15.70;99.90;;;;;;4964970;28;270789;-78
2022/07/06 06:41:59;;;;;;;6.03;0.90;;;15.80;99.90;;;;;;4924431;28;225906;-76
2022/07/06 06:44:25;;;;;;;7.00;1.02;;;15.90;99.90;;;;;;4980972;28;256801;-78
2022/07/06 06:46:52;;;;;;;6.68;1.10;;;16.00;99.90;;;;;;4940091;28;208996;-78
2022/07/06 06:49:18;;;;;;;7.40;1.10;;;16.00;99.90;;;;;;4988123;28;250878;-76
2022/07/06 06:51:44;;;;;;;11.35;1.27;;;16.00;99.90;;;;;;4959752;28;209061;-77
2022/07/06 06:54:11;;;;;;;7.93;1.10;;;16.00;99.90;;;;;;4979192;28;258632;-75
2022/07/06 06:56:37;;;;;;;8.88;1.23;;;16.00;99.90;;;;;;4930223;28;204873;-77
2022/07/06 06:59:03;;;;;;;8.60;1.30;;;16.10;99.90;;;;;;5001414;28;20614;-78
2022/07/06 07:01:29;;;;;;;5.15;0.80;;;16.20;99.90;;;;;;4944094;28;206578;-77
2022/07/06 07:03:56;;;;;;;6.70;1.10;;;16.20;99.90;;;;;;4984655;28;20058;-77
2022/07/06 07:06:22;;;;;;;5.30;0.73;;;16.10;99.90;;;;;;4913224;28;243613;-77
2022/07/06 07:08:48;;;;;;;9.60;1.02;;;16.20;99.90;;;;;;4985370;28;20046;-77
2022/07/06 07:11:14;;;;;;;6.43;1.00;;;16.10;99.90;;;;;;4944102;28;248142;-77
2022/07/06 07:13:40;;;;;;;8.50;0.98;;;16.30;99.90;;;;;;4986284;28;20431;-78
2022/07/06 07:16:07;;;;;;;6.13;1.00;;;16.40;99.90;;;;;;4939313;28;207262;-78
2022/07/06 07:18:33;;;;;;;7.15;0.82;;;16.50;99.90;;;;;;5002690;28;20062;-78
2022/07/06 07:20:59;;;;;;;10.25;1.10;;;16.80;99.90;;;;;;4939470;28;221353;-78
2022/07/06 07:23:26;;;;;;;9.52;1.02;;;16.90;99.90;;;;;;4995255;28;20061;-77
2022/07/06 07:25:52;;;;;;;6.82;0.90;;;17.10;99.90;;;;;;4938190;28;208177;-79
2022/07/06 07:28:18;;;;;;;6.82;1.00;;;17.30;99.90;;;;;;4980077;28;20057;-78
2022/07/06 07:30:44;;;;;;;6.15;0.95;;;17.60;99.90;;;;;;4944415;28;204303;-77
2022/07/06 07:33:10;;;;;;;7.43;0.90;;;18.00;99.90;;;;;;4972194;28;20065;-78
2022/07/06 07:35:36;;;;;;;7.85;1.00;;;18.10;99.90;;;;;;4950429;28;250941;-77
2022/07/06 07:38:02;;;;;;;7.93;0.90;;;18.20;99.90;;;;;;5000181;28;20522;-78
2022/07/06 07:40:29;;;;;;;7.68;1.00;;;18.40;99.90;;;;;;4948076;28;205674;-78
2022/07/06 07:42:55;;;;;;;10.25;1.05;;;18.60;99.90;;;;;;4993061;28;20065;-78
2022/07/06 07:45:21;;;;;;;8.35;1.30;;;18.90;99.90;;;;;;4941148;28;205239;-77
2022/07/06 07:47:48;;;;;;;7.05;0.90;;;18.60;99.80;;;;;;4989377;28;20046;-76
2022/07/06 07:50:14;;;;;;;6.05;0.90;;;18.30;99.50;;;;;;4988025;28;248967;-77
2022/07/06 07:52:40;;;;;;;9.93;1.17;;;17.90;99.90;;;;;;4927662;28;207147;-77
2022/07/06 07:55:07;;;;;;;6.15;0.82;;;17.70;99.90;;;;;;4991096;28;33935;-77
2022/07/06 07:57:33;;;;;;;7.30;1.00;;;17.60;99.90;;;;;;4927746;28;232911;-77
2022/07/06 07:59:59;;;;;;;7.53;0.90;;;17.50;99.90;;;;;;4989720;28;220260;-78
2022/07/06 08:02:25;;;;;;;6.70;0.80;;;17.50;99.90;;;;;;4956156;28;204728;-77
2022/07/06 08:04:52;;;;;;;7.72;0.90;;;17.40;99.40;;;;;;4972825;28;150711;-76
2022/07/06 08:07:18;;;;;;;4.97;0.80;;;17.30;99.70;;;;;;4949051;28;203611;-77
2022/07/06 08:09:44;;;;;;;7.32;0.82;;;17.40;99.40;;;;;;4992201;28;65770;-77
2022/07/06 08:12:10;;;;;;;5.40;0.77;;;17.60;99.20;;;;;;4949682;28;211183;-77
2022/07/06 08:14:37;;;;;;;5.47;0.88;;;17.70;98.50;;;;;;4994526;28;44501;-77
2022/07/06 08:17:04;;;;;;;7.38;0.90;;;17.60;99.00;;;;;;4951761;28;155793;-78
2022/07/06 08:19:30;;;;;;;7.35;0.90;;;17.40;98.80;;;;;;4961524;28;270571;-77
2022/07/06 08:21:57;;;;;;;6.72;0.98;;;17.40;98.60;;;;;;4956465;28;211556;-77
2022/07/06 08:24:23;;;;;;;7.18;0.90;;;17.40;99.00;;;;;;4992108;28;263555;-78
2022/07/06 08:26:49;;;;;;;7.43;0.90;;;17.60;98.80;;;;;;4954506;28;207172;-77
2022/07/06 08:29:15;;;;;;;5.60;0.80;;;17.70;98.70;;;;;;4981828;28;267731;-78
2022/07/06 08:31:41;;;;;;;6.72;0.90;;;17.70;98.90;;;;;;4967422;28;202782;-78
2022/07/06 08:34:08;;;;;;;7.45;1.00;;;17.90;99.00;;;;;;4973262;28;269373;-78
2022/07/06 08:36:34;;;;;;;6.03;0.90;;;18.00;98.80;;;;;;4947564;28;215821;-77
2022/07/06 08:39:00;;;;;;;8.13;0.90;;;18.30;98.40;;;;;;5004472;28;20057;-78
2022/07/06 08:41:29;;;;;;;6.88;0.88;;;18.50;97.70;;;;;;4957556;28;206146;-75
2022/07/06 08:43:55;;;;;;;6.95;1.00;;;18.60;95.70;;;;;;5013485;28;20061;-77
2022/07/06 08:46:22;;;;;;;7.72;0.82;;;18.70;95.20;;;;;;4936511;28;230065;-78
2022/07/06 08:48:49;;;;;;;6.30;0.80;;;18.70;95.50;;;;;;5003325;28;20423;-77
2022/07/06 08:51:16;;;;;;;6.57;0.90;;;18.80;95.80;;;;;;4942859;28;247225;-78
2022/07/06 08:53:44;;;;;;;4.80;0.90;;;19.00;95.30;;;;;;4996406;28;20058;-77
2022/07/06 08:56:10;;;;;;;8.40;0.73;;;19.20;94.70;;;;;;4943085;28;206744;-79
2022/07/06 08:58:40;;;;;;;5.38;0.80;;;19.50;95.00;;;;;;5009611;28;20073;-78
2022/07/06 09:01:09;;;;;;;5.78;0.70;;;19.80;94.00;;;;;;4934323;28;243418;-79
2022/07/06 09:03:35;;;;;;;5.82;0.80;;;20.10;93.40;;;;;;4997359;28;20388;-76
2022/07/06 09:06:03;;;;;;;5.50;0.93;;;20.40;94.60;;;;;;4909956;28;228648;-78
2022/07/06 09:08:31;;;;;;;6.15;0.73;;;21.00;92.70;;;;;;4965390;28;20054;-76
2022/07/06 09:10:57;;;;;;;6.15;0.82;;;21.40;90.10;;;;;;4926192;28;206319;-76
2022/07/06 09:13:23;;;;;;;4.65;0.77;;;21.30;90.40;;;;;;5002157;28;20057;-77
2022/07/06 09:15:49;;;;;;;7.00;0.68;;;21.40;88.40;;;;;;4963852;28;211200;-77
2022/07/06 09:18:16;;;;;;;3.60;0.57;;;20.80;80.00;;;;;;5016537;28;20049;-77
2022/07/06 09:20:42;;;;;;;6.63;0.80;;;20.60;86.60;;;;;;4953760;28;208348;-78
2022/07/06 09:23:08;;;;;;;4.60;0.63;;;20.40;84.50;;;;;;4990799;28;20054;-78
2022/07/06 09:25:35;;;;;;;7.63;1.20;;;20.30;87.60;;;;;;4931601;28;208690;-78
2022/07/06 09:28:02;;;;;;;5.05;0.70;;;20.10;88.50;;;;;;4971596;28;20056;-78
2022/07/06 09:30:29;;;;;;;6.65;1.10;;;20.10;86.30;;;;;;4945436;28;191731;-77
2022/07/06 09:32:57;;;;;;;6.10;1.05;;;20.20;87.90;;;;;;4985511;28;20408;-77
2022/07/06 09:35:36;;;;;;;7.43;0.98;;;20.30;87.10;;;;;;4944269;28;205988;-78
2022/07/06 09:38:08;;;;;;;4.40;0.90;;;20.70;85.80;;;;;;4983074;28;20050;-77
2022/07/06 09:40:39;;;;;;;6.90;0.90;;;21.30;89.40;;;;;;4957733;28;206119;-77
2022/07/06 09:43:14;;;;;;;5.90;0.80;;;21.90;82.60;;;;;;4992956;28;20058;-77
2022/07/06 09:45:45;;;;;;;5.78;0.70;;;21.50;81.90;;;;;;4969116;28;226211;-77
2022/07/06 09:48:40;;;;;;;7.85;0.82;;;21.00;84.00;;;;;;5006966;28;20999;-78
2022/07/06 09:51:07;;;;;;;6.13;0.80;;;20.50;83.20;;;;;;4932064;28;207699;-78
2022/07/06 09:53:35;;;;;;;7.22;0.90;;;20.30;87.20;;;;;;5007676;28;20087;-78
2022/07/06 09:56:05;;;;;;;7.43;1.00;;;20.60;82.00;;;;;;4937910;28;230294;-78
2022/07/06 09:58:31;;;;;;;9.30;1.00;;;20.50;85.20;;;;;;4985594;28;20054;-78
2022/07/06 10:00:57;;;;;;;6.75;1.00;;;20.50;81.60;;;;;;4944215;28;210711;-79
2022/07/06 10:03:24;;;;;;;5.55;0.75;;;20.20;83.90;;;;;;5009261;28;20046;-77
2022/07/06 10:05:50;;;;;;;5.65;0.88;;;20.10;85.30;;;;;;4927011;28;224415;-77
2022/07/06 10:08:17;;;;;;;7.15;1.00;;;20.00;86.10;;;;;;4987565;28;20049;-76
2022/07/06 10:10:44;;;;;;;8.13;0.93;;;20.40;89.00;;;;;;4935209;28;206814;-78
2022/07/06 10:13:11;;;;;;;7.10;0.80;;;20.90;89.20;;;;;;4977969;28;20062;-78
2022/07/06 10:15:39;;;;;;;5.50;0.80;;;21.40;85.90;;;;;;4958837;28;198986;-78
2022/07/06 10:18:08;;;;;;;7.13;1.00;;;21.80;82.60;;;;;;5006814;28;20062;-77
2022/07/06 10:20:38;;;;;;;5.13;0.90;;;21.60;84.30;;;;;;4971924;28;205752;-78
2022/07/06 10:23:05;;;;;;;6.53;0.98;;;21.50;83.20;;;;;;4985163;28;20432;-78
2022/07/06 10:25:33;;;;;;;4.38;0.85;;;21.30;81.40;;;;;;4946140;28;225439;-78
2022/07/06 10:28:00;;;;;;;4.65;0.70;;;21.10;82.80;;;;;;4988042;28;20056;-78
2022/07/06 10:30:28;;;;;;;7.22;0.80;;;21.00;81.30;;;;;;4947322;28;206380;-77
2022/07/06 10:32:57;;;;;;;5.40;0.98;;;20.80;82.20;;;;;;4996058;28;20060;-78
2022/07/06 10:35:24;;;;;;;7.43;0.80;;;20.50;83.50;;;;;;4939917;28;205373;-78
2022/07/06 10:38:09;;;;;;;9.30;1.05;;;20.50;83.60;;;;;;4970134;28;20050;-78
2022/07/06 10:43:23;;;;;;;5.20;0.80;;;21.20;83.30;;;;;;4995900;28;20057;-79
2022/07/06 10:45:50;;;;;;;8.25;1.17;;;21.90;85.20;;;;;;4949516;28;207811;-78
2022/07/06 10:48:17;;;;;;;7.30;1.00;;;22.20;78.30;;;;;;4990072;28;20062;-79
2022/07/06 10:50:56;;;;;;;5.82;0.80;;;22.60;79.80;;;;;;4926677;28;208403;-79
2022/07/06 10:53:24;;;;;;;6.93;1.13;;;22.30;74.40;;;;;;4999730;28;20054;-78
2022/07/06 10:55:53;;;;;;;5.68;0.88;;;21.90;77.80;;;;;;4933277;28;218410;-78
2022/07/06 10:58:41;;;;;;;6.40;1.00;;;22.20;76.10;;;;;;4992940;28;20054;-79
2022/07/06 11:01:11;;;;;;;7.30;0.82;;;22.20;71.60;;;;;;4945959;28;204796;-78
2022/07/06 11:03:45;;;;;;;6.50;1.00;;;22.60;69.50;;;;;;4995681;28;20054;-77
2022/07/06 11:06:16;;;;;;;6.03;0.88;;;22.60;67.30;;;;;;4932980;28;209881;-77
2022/07/06 11:08:46;;;;;;;7.05;0.95;;;22.40;69.10;;;;;;5020264;28;20061;-78
2022/07/06 11:11:21;;;;;;;7.70;1.10;;;22.20;68.30;;;;;;4955981;28;252771;-80
2022/07/06 11:14:14;;;;;;;7.22;0.90;;;21.80;69.00;;;;;;5010277;28;20061;-78
2022/07/06 11:17:02;;;;;;;10.10;1.13;;;21.50;67.40;;;;;;4946099;28;214634;-80
2022/07/06 11:19:28;;;;;;;6.00;0.93;;;21.10;70.70;;;;;;4994098;28;254392;-83
2022/07/06 11:21:57;;;;;;;7.63;1.10;;;20.70;73.00;;;;;;4951443;28;205203;-77
2022/07/06 11:24:26;;;;;;;4.40;0.73;;;20.60;76.50;;;;;;4983791;28;287847;-78
2022/07/06 11:27:06;;;;;;;5.88;0.90;;;21.10;77.60;;;;;;4951507;28;201213;-82
2022/07/06 11:29:39;;;;;;;6.60;0.80;;;21.90;78.50;;;;;;5005476;28;149332;-81
2022/07/06 11:32:09;;;;;;;6.78;0.80;;;22.30;72.70;;;;;;4964994;28;217773;-77
2022/07/06 11:34:40;;;;;;;4.70;0.80;;;22.10;69.70;;;;;;4998484;28;63538;-77
2022/07/06 11:37:11;;;;;;;6.70;0.90;;;21.80;70.00;;;;;;4925524;28;205731;-77
2022/07/06 11:39:40;;;;;;;11.95;1.50;;;21.00;73.80;;;;;;4975319;28;188047;-76
2022/07/06 11:42:07;;;;;;;7.13;1.10;;;20.80;74.30;;;;;;4970448;28;203807;-76
2022/07/06 11:44:34;;;;;;;4.97;0.85;;;20.60;75.10;;;;;;5011653;28;20038;-76
2022/07/06 11:47:03;;;;;;;7.25;1.00;;;20.60;75.90;;;;;;4945342;28;207110;-77
2022/07/06 11:49:35;;;;;;;7.63;1.10;;;21.30;76.30;;;;;;4998591;28;41683;-79
2022/07/06 11:52:10;;;;;;;6.07;0.90;;;22.00;74.50;;;;;;4964833;28;229283;-79
2022/07/06 11:54:36;;;;;;;5.45;0.90;;;22.50;73.10;;;;;;4994550;28;20045;-79
2022/07/06 11:57:06;;;;;;;7.07;1.05;;;22.80;69.10;;;;;;4946965;28;114560;-79
2022/07/06 11:59:34;;;;;;;6.18;1.10;;;23.20;65.00;;;;;;4994372;28;153555;-78
2022/07/06 12:02:10;;;;;;;6.97;1.00;;;23.40;60.10;;;;;;4934072;28;215216;-79
2022/07/06 12:04:38;;;;;;;6.95;0.95;;;24.10;62.10;;;;;;4978675;28;117652;-79
2022/07/06 12:07:13;;;;;;;6.82;0.90;;;24.30;56.70;;;;;;4947236;28;204088;-79
2022/07/06 12:09:41;;;;;;;7.30;0.80;;;24.00;57.70;;;;;;4995374;28;33708;-79
2022/07/06 12:12:09;;;;;;;4.15;0.80;;;23.60;58.40;;;;;;4935852;28;209499;-78
2022/07/06 12:14:37;;;;;;;5.22;0.85;;;23.50;56.80;;;;;;4990650;28;100370;-79
2022/07/06 12:17:08;;;;;;;6.00;0.88;;;23.20;58.20;;;;;;4925829;28;211957;-79
2022/07/06 12:19:36;;;;;;;7.35;1.00;;;23.00;58.90;;;;;;4959988;28;1143529;-80
2022/07/06 12:22:04;;;;;;;5.72;0.80;;;23.00;60.30;;;;;;4963962;28;202246;-80
2022/07/06 12:24:32;;;;;;;5.18;1.00;;;22.80;60.10;;;;;;4979647;28;252642;-79
2022/07/06 12:27:16;;;;;;;5.55;0.80;;;22.50;60.20;;;;;;4963119;28;172446;-79
2022/07/06 12:29:43;;;;;;;6.95;0.90;;;22.60;61.10;;;;;;4988647;28;270280;-79
2022/07/06 12:32:18;;;;;;;7.20;1.00;;;22.50;61.30;;;;;;4929959;28;206311;-79
2022/07/06 12:34:44;;;;;;;5.30;0.90;;;22.50;61.50;;;;;;4995440;28;20045;-79
2022/07/06 12:37:12;;;;;;;5.18;0.88;;;22.50;61.20;;;;;;4953476;28;207906;-79
2022/07/06 12:39:46;;;;;;;5.57;0.82;;;22.80;62.10;;;;;;4990111;28;209969;-80
2022/07/06 12:42:17;;;;;;;5.53;0.80;;;23.70;60.80;;;;;;4953262;28;206313;-80
2022/07/06 12:44:48;;;;;;;11.43;1.30;;;24.00;58.90;;;;;;4991342;28;272354;-80
2022/07/06 12:47:18;;;;;;;3.95;0.70;;;24.20;58.40;;;;;;4960201;28;206895;-80
2022/07/06 12:49:46;;;;;;;6.35;1.00;;;24.30;58.30;;;;;;4989879;28;189413;-80